Main page
METAR-TAF:

METAR-TAF

Airports :

Rota, Spain

Naval Station Rota

latitude: 36-39N, longitude: 006-21W, elevation: 26 m

Current weather observation

The report was made 15 minutes ago, at 07:00 UTC
Wind 5 kt from the East
Temperature 7°C
Humidity 100%
Pressure 1020 hPa
Visibility: 4500 m
mist

METAR: LERT 180700Z 09005KT 4500 BR NSC 07/07 Q1020 NOSIG

Time: 08:15 (07:15 UTC)

Forecast

The report was made 2 hours and 15 minutes ago, at 05:00 UTC
Forecast valid from 18 at 06 UTC to 18 at 15 UTC
Wind 3 kt from the East
Visibility: 8000 m
Probability 40% :
Temporary
from 18 at 06 UTC to 18 at 10 UTC
Visibility: 3000 m
Broken clouds at a height of 1200 ft
mist
Probability 30% :
Temporary
from 18 at 06 UTC to 18 at 09 UTC
Visibility: 0500 m
at a height of 100 ft
fog

TAF: LERT 180500Z 1806/1815 08003KT 8000 NSC PROB40 TEMPO 1806/1810 3000 BR BKN012 PROB30 TEMPO 1806/1809 0500 FG VV001

Weather observations and forecasts of more than 4000 airports (METAR and TAF reports).

The available stations are represented by yellow and red dots on the map.

Hover mouse over dot to see the name of the station.

Then click to see weather observations and forecasts.

To change the map : click on the green buttons with a black cross to zoom in, on the green button with a dash to zoom out, or on the green arrows for adjacent maps.


METAR-TAF: